»·PEaware :: AAL646 KBOI-KPHX

AAL646 :: KBOI-KPHX

FLIGHT INFORMATION

Flight Status: Arrived
Operator:
American Airlines
More flights by this operator :: More flights under this callsign
Pilot: Drew L. (13237)
Aircraft: AIRBUS A320
(A320)
More flights by this aircraft type
Origin: KBOI Boise Air Terminal/Gowen
United States
Destination: KPHX Phoenix Sky Harbor Intl
United States
More flights between these airports :: More routes between these airports
Route: BOI3 BOI ROARR LYONS CRITO WINEN Q35 CORKR TENTS BRUSR1
File this flight plan on PilotEdge
Remarks: PBN / A1B1C1D1O1S1 DOF / 180415 REG / N320SB EET / KZLA0100 KZAB0119 OPR / AAL PER / C RMK / TCAS SIMBRIEF
Altitude:
(Current/Filed)
37,000ft
Speed:
(Current/Filed)
452kts
Departed: 15-Apr-18 11:59 AM
Arrived: 15-Apr-18 01:45 PM
Distance/Time
Traveled:
639nm/1:46
Distance/Time
To Go:
Arrived

Flight Plot

Page will automatically refresh every two minutes.

Flight plan parsing failed; only flown route is shown


Map Options




Map Legend


Flown Route
Filed Route
Departure Airport
Arrival Airport
Navaid (VOR, NDB)
Fix

Horizontal Profiles

Position Reports

Time Latitude Longitude Heading Altitude Ground
Speed
15-Apr-18 11:30 43.567176 -116.220311 22 2880ft 0kts
15-Apr-18 11:31 43.567176 -116.220311 22 2880ft 0kts
15-Apr-18 11:32 43.567176 -116.220311 22 2880ft 0kts
15-Apr-18 11:33 43.567176 -116.220311 22 2880ft 0kts
15-Apr-18 11:34 43.567176 -116.220311 22 2880ft 0kts
15-Apr-18 11:35 43.567176 -116.220311 22 2880ft 0kts
15-Apr-18 11:36 43.567176 -116.220311 22 2880ft 0kts
15-Apr-18 11:37 43.567176 -116.220311 22 2880ft 0kts
15-Apr-18 11:38 43.567176 -116.220311 22 2880ft 0kts
15-Apr-18 11:39 43.567176 -116.220311 22 2880ft 0kts
15-Apr-18 11:40 43.567176 -116.220311 22 2880ft 0kts
15-Apr-18 11:41 43.567176 -116.220311 22 2880ft 0kts
15-Apr-18 11:42 43.567176 -116.220311 22 2880ft 0kts
15-Apr-18 11:43 43.567176 -116.220311 22 2880ft 0kts
15-Apr-18 11:44 43.567176 -116.220311 22 2880ft 0kts
15-Apr-18 11:45 43.567176 -116.220311 22 2880ft 0kts
15-Apr-18 11:46 43.567176 -116.220311 22 2880ft 0kts
15-Apr-18 11:47 43.567085 -116.220361 16 2880ft 2kts
15-Apr-18 11:48 43.566525 -116.220185 317 2880ft 2kts
15-Apr-18 11:49 43.566365 -116.219877 294 2880ft 0kts
15-Apr-18 11:50 43.566365 -116.219877 295 2880ft 0kts
15-Apr-18 11:51 43.566366 -116.219878 295 2880ft 0kts
15-Apr-18 11:52 43.566570 -116.220532 281 2880ft 6kts
15-Apr-18 11:53 43.566564 -116.220755 260 2880ft 0kts
15-Apr-18 11:54 43.566263 -116.221370 255 2880ft 9kts
15-Apr-18 11:55 43.568502 -116.228262 298 2880ft 19kts
15-Apr-18 11:56 43.570932 -116.235484 277 2880ft 11kts
15-Apr-18 11:57 43.570931 -116.235651 262 2880ft 0kts
15-Apr-18 11:58 43.568342 -116.231288 116 2880ft 82kts
15-Apr-18 11:59 43.547981 -116.181084 127 4698ft 170kts
15-Apr-18 12:00 43.528431 -116.123350 112 7285ft 185kts
15-Apr-18 12:01 43.507460 -116.043244 116 8862ft 261kts
15-Apr-18 12:02 43.475509 -115.943710 116 10856ft 312kts
15-Apr-18 12:03 43.438465 -115.827083 116 12850ft 346kts
15-Apr-18 12:04 43.397973 -115.699904 117 14631ft 377kts
15-Apr-18 12:05 43.355048 -115.565559 117 16734ft 391kts
15-Apr-18 12:06 43.310411 -115.426715 117 18612ft 405kts
15-Apr-18 12:07 43.243709 -115.306529 142 20335ft 403kts
15-Apr-18 12:08 43.161730 -115.199946 142 21940ft 412kts
15-Apr-18 12:09 43.077999 -115.091402 143 23459ft 420kts
15-Apr-18 12:10 42.992463 -114.980999 143 24761ft 430kts
15-Apr-18 12:11 42.904458 -114.867914 143 25697ft 447kts
15-Apr-18 12:12 42.814522 -114.753104 147 27058ft 447kts
15-Apr-18 12:13 42.704901 -114.700740 185 28114ft 414kts
15-Apr-18 12:14 42.590050 -114.695317 185 29191ft 419kts
15-Apr-18 12:15 42.473052 -114.689839 186 30089ft 425kts
15-Apr-18 12:16 42.354375 -114.684338 186 30925ft 431kts
15-Apr-18 12:17 42.236226 -114.678820 187 32179ft 423kts
15-Apr-18 12:18 42.119082 -114.673410 187 33044ft 423kts
15-Apr-18 12:19 42.002035 -114.668239 188 33887ft 421kts
15-Apr-18 12:20 41.885981 -114.662966 188 34602ft 422kts
15-Apr-18 12:21 41.768958 -114.657627 188 35382ft 420kts
15-Apr-18 12:22 41.652582 -114.652364 188 36058ft 420kts
15-Apr-18 12:23 41.536243 -114.647130 188 36630ft 420kts
15-Apr-18 12:24 41.419606 -114.641901 188 36999ft 420kts
15-Apr-18 12:25 41.303263 -114.636703 188 37087ft 421kts
15-Apr-18 12:26 41.186419 -114.631500 188 37086ft 422kts
15-Apr-18 12:27 41.069457 -114.626307 188 37087ft 422kts
15-Apr-18 12:28 40.957280 -114.621348 188 37087ft 422kts
15-Apr-18 12:29 40.842213 -114.616282 188 37087ft 422kts
15-Apr-18 12:30 40.725055 -114.611139 188 37090ft 422kts
15-Apr-18 12:31 40.608154 -114.606024 188 37089ft 422kts
15-Apr-18 12:32 40.491295 -114.600923 188 37092ft 421kts
15-Apr-18 12:33 40.374016 -114.588163 171 37085ft 446kts
15-Apr-18 12:34 40.258005 -114.525735 168 37084ft 452kts
15-Apr-18 12:35 40.142351 -114.463009 168 37080ft 452kts
15-Apr-18 12:36 40.026613 -114.400579 168 37082ft 451kts
15-Apr-18 12:37 39.911381 -114.338661 168 37069ft 451kts
15-Apr-18 12:38 39.799623 -114.278818 168 37072ft 451kts
15-Apr-18 12:39 39.683848 -114.217054 168 37105ft 451kts
15-Apr-18 12:40 39.568232 -114.155596 168 37115ft 451kts
15-Apr-18 12:41 39.452623 -114.094364 168 37118ft 451kts
15-Apr-18 12:42 39.336760 -114.033215 168 37119ft 451kts
15-Apr-18 12:43 39.220705 -113.972184 168 37118ft 451kts
15-Apr-18 12:44 39.105058 -113.911584 167 37119ft 451kts
15-Apr-18 12:45 38.989077 -113.851027 167 37120ft 451kts
15-Apr-18 12:46 38.878712 -113.793604 167 37141ft 451kts
15-Apr-18 12:47 38.762614 -113.733409 167 37144ft 452kts
15-Apr-18 12:48 38.646427 -113.673375 167 37146ft 452kts
15-Apr-18 12:49 38.549137 -113.623265 167 37144ft 452kts
15-Apr-18 12:50 38.433033 -113.563662 167 37140ft 452kts
15-Apr-18 12:51 38.316790 -113.504191 167 37137ft 452kts
15-Apr-18 12:52 38.200972 -113.445115 168 37154ft 447kts
15-Apr-18 12:53 38.067618 -113.377376 168 37110ft 442kts
15-Apr-18 12:54 37.954569 -113.320159 169 37141ft 439kts
15-Apr-18 12:55 37.860518 -113.272716 168 37117ft 438kts
15-Apr-18 12:56 37.747613 -113.215932 168 37133ft 439kts
15-Apr-18 12:57 37.634801 -113.159371 168 37158ft 440kts
15-Apr-18 12:58 37.521355 -113.102676 168 37175ft 441kts
15-Apr-18 12:59 37.407874 -113.046145 168 37181ft 442kts
15-Apr-18 13:00 37.293917 -112.989560 168 37223ft 441kts
15-Apr-18 13:01 37.179716 -112.933046 168 37230ft 442kts
15-Apr-18 13:02 37.065913 -112.876909 168 37224ft 442kts
15-Apr-18 13:03 36.951621 -112.820714 168 37220ft 442kts
15-Apr-18 13:04 36.838272 -112.765163 168 37220ft 443kts
15-Apr-18 13:05 36.724009 -112.709340 168 37227ft 443kts
15-Apr-18 13:06 36.609835 -112.653728 168 37227ft 443kts
15-Apr-18 13:07 36.514473 -112.607422 168 37223ft 443kts
15-Apr-18 13:08 36.406975 -112.555373 168 37219ft 443kts
15-Apr-18 13:09 36.292960 -112.500340 168 37267ft 443kts
15-Apr-18 13:10 36.178557 -112.445295 168 37266ft 442kts
15-Apr-18 13:11 36.063926 -112.403496 187 37225ft 423kts
15-Apr-18 13:12 35.947064 -112.412463 191 37194ft 428kts
15-Apr-18 13:13 35.853451 -112.420589 192 37261ft 432kts
15-Apr-18 13:14 35.782102 -112.426791 192 36870ft 434kts
15-Apr-18 13:15 35.665191 -112.436921 192 35975ft 432kts
15-Apr-18 13:16 35.546422 -112.447232 192 35059ft 434kts
15-Apr-18 13:17 35.426154 -112.439058 179 33140ft 451kts
15-Apr-18 13:18 35.303893 -112.414857 179 31028ft 444kts
15-Apr-18 13:19 35.184226 -112.391343 179 29256ft 428kts
15-Apr-18 13:20 35.067595 -112.365935 178 28105ft 427kts
15-Apr-18 13:21 34.954036 -112.341310 178 27037ft 422kts
15-Apr-18 13:22 34.875814 -112.324400 178 26341ft 418kts
15-Apr-18 13:23 34.765299 -112.300079 177 24551ft 403kts
15-Apr-18 13:24 34.669559 -112.279034 176 22841ft 394kts
15-Apr-18 13:25 34.568744 -112.256933 175 21030ft 383kts
15-Apr-18 13:26 34.466295 -112.234518 175 19361ft 365kts
15-Apr-18 13:27 34.369019 -112.210090 173 17737ft 354kts
15-Apr-18 13:28 34.276671 -112.186198 172 16032ft 346kts
15-Apr-18 13:29 34.184489 -112.162384 172 14324ft 337kts
15-Apr-18 13:30 34.096867 -112.139789 173 13124ft 312kts
15-Apr-18 13:31 34.014679 -112.145071 188 11850ft 291kts
15-Apr-18 13:32 33.936176 -112.153840 187 10558ft 281kts
15-Apr-18 13:33 33.860838 -112.167140 191 9314ft 272kts
15-Apr-18 13:34 33.803876 -112.179199 191 8404ft 267kts
15-Apr-18 13:35 33.737732 -112.193152 191 7988ft 235kts
15-Apr-18 13:36 33.671331 -112.207186 190 7260ft 252kts
15-Apr-18 13:37 33.603452 -112.221508 190 6382ft 242kts
15-Apr-18 13:38 33.537046 -112.229136 180 5259ft 244kts
15-Apr-18 13:39 33.472935 -112.222516 161 4127ft 214kts
15-Apr-18 13:40 33.439643 -112.184187 81 3737ft 174kts
15-Apr-18 13:41 33.441072 -112.131185 89 2849ft 147kts
15-Apr-18 13:42 33.440968 -112.082503 88 2076ft 148kts
15-Apr-18 13:43 33.440852 -112.033590 89 1288ft 147kts
15-Apr-18 13:44 33.440834 -112.002668 90 1143ft 36kts
15-Apr-18 13:45 33.439856 -112.001218 186 1143ft 1kts
15-Apr-18 13:46 33.437860 -111.999878 113 1143ft 0kts

Navigation Log

Ident Type
Flight plan parsing failed, navigation log unavailable